Terminal Aerodrome Forecast
Issued by NWS

Home | Current Version | Previous Version | Text Only | Print | Product List | Glossary On
Versions: 1 2 3 4 5 6 7 8 9 10 11 12 13
000
FTAK31 PAJN 052300
TAFAPG
TAF
PAPG 052320Z 0600/0624 VRB02KT P6SM -RA SCT015 BKN020 OVC035
     FM060600 24003KT 5SM -SHRA BR BKN015 OVC025
     FM061200 VRB03KT P6SM -SHRA OVC015
     FM062100 VRB03KT P6SM VCSH SCT015 OVC040
      AMD LTD TO CLD VIS AND WIND 0606/0615=

USA.gov is the U.S. government's official web portal to all federal, state and local government web resources and services.